1899 NOT_NAMED (1899184N17129)


IBTrACS version v04r00. Visit IBTrACS website for data access.
Please direct all questions to the IBTrACS Q and A forum

Storm track - Intensity - Wind Radii - Intensity Data - Source Data - All data

Summary Information

Storm ID 1899184N17129
Start Jul 2 16Z
End Jul 7 04Z
ATCF IDs
Track status Best track data.

Storm track plot

Map of storm track

Intensity plots

No Intensity information for this storm


Radial wind information

No radial wind information for this storm


Position and Intensity Table

BASIN ISO_TIME_________ NATURE LAT LON
degrees north degrees east
WP 1899-07-02 16:00:00 NR 17.20 128.90
WP 18:00:00 NR 17.50 128.66
WP 21:00:00 NR 17.93 128.32
WP 1899-07-03 00:00:00 NR 18.34 128.01
WP 03:00:00 NR 18.70 127.76
WP 04:00:00 NR 18.80 127.70
WP 06:00:00 NR 18.99 127.60
WP 09:00:00 NR 19.22 127.52
WP 12:00:00 NR 19.43 127.47
WP 15:00:00 NR 19.63 127.42
WP 16:00:00 NR 19.70 127.40
WP 18:00:00 NR 19.85 127.32
WP 21:00:00 NR 20.08 127.18
WP 1899-07-04 00:00:00 NR 20.32 127.05
WP 03:00:00 NR 20.60 126.93
WP 04:00:00 NR 20.70 126.90
WP 06:00:00 NR 20.93 126.86
WP 09:00:00 NR 21.31 126.81
WP 12:00:00 NR 21.70 126.80
WP 15:00:00 NR 22.08 126.80
WP 16:00:00 NR 22.20 126.80
WP 18:00:00 NR 22.40 126.79
WP 21:00:00 NR 22.68 126.80
WP 1899-07-05 00:00:00 NR 22.95 126.82
WP 03:00:00 NR 23.21 126.88
WP 04:00:00 NR 23.30 126.90
WP 06:00:00 NR 23.50 126.95
WP 09:00:00 NR 23.80 127.06
WP 12:00:00 NR 24.10 127.19
WP 15:00:00 NR 24.40 127.34
WP 16:00:00 NR 24.50 127.40
WP 18:00:00 NR 24.69 127.52
WP 21:00:00 NR 24.96 127.73
WP 1899-07-06 00:00:00 NR 25.23 127.94
WP 03:00:00 NR 25.51 128.14
WP 04:00:00 NR 25.60 128.20
WP 06:00:00 NR 25.79 128.29
WP 09:00:00 NR 26.08 128.41
WP 12:00:00 NR 26.38 128.52
WP 15:00:00 NR 26.69 128.65
WP 16:00:00 NR 26.80 128.70
WP 18:00:00 NR 27.02 128.82
WP 21:00:00 NR 27.37 129.02
WP 1899-07-07 00:00:00 NR 27.72 129.26
WP 03:00:00 NR 28.08 129.51
WP 04:00:00 NR 28.20 129.60

Source Information

Agency Information
USA
TOKYO
CMA
HKO
NEWDELHI
REUNION
BOM
NADI
WELLINGTON
DS824
TD9636 cons_worldwide_trop_cyclone_18710101-19891231-003:Line=1958
TD9635
NEUMANN
MLC

All available IBTrACS Data

SEASON BASIN SUBBASIN ISO_TIME_________ NATURE LAT LON DIST2LAND LANDFALL IFLAG USA SSHS TD9636 LAT TD9636 LON TD9636 STAGE STORM SPEED STORM DIR
Year degrees north degrees east km km 1 degrees north degrees east kts degrees
1899 WP MM 1899-07-02 16:00:00 NR 17.20 128.90 607 604 __________O___ -1 17.20 128.90 7 11 323
1899 WP MM 18:00:00 NR 17.50 128.66 611 603 __________P___ -1 17.50 128.66 7 11 323
1899 WP MM 21:00:00 NR 17.93 128.32 611 600 __________P___ -1 17.93 128.32 7 10 324
1899 WP MM 1899-07-03 00:00:00 NR 18.34 128.01 600 580 __________P___ -1 18.34 128.01 7 9 325
1899 WP MM 03:00:00 NR 18.70 127.76 580 570 __________P___ -1 18.70 127.76 7 8 328
1899 WP MM 04:00:00 NR 18.80 127.70 570 561 __________O___ -1 18.80 127.70 3 7 333
1899 WP MM 06:00:00 NR 18.99 127.60 562 553 __________P___ -1 18.99 127.60 3 6 338
1899 WP MM 09:00:00 NR 19.22 127.52 554 554 __________P___ -1 19.22 127.52 3 5 344
1899 WP MM 12:00:00 NR 19.43 127.47 558 550 __________P___ -1 19.43 127.47 3 4 347
1899 WP MM 15:00:00 NR 19.63 127.42 552 552 __________P___ -1 19.63 127.42 3 4 347
1899 WP MM 16:00:00 NR 19.70 127.40 555 548 __________O___ -1 19.70 127.40 4 5 337
1899 WP MM 18:00:00 NR 19.85 127.32 548 544 __________P___ -1 19.85 127.32 4 5 331
1899 WP MM 21:00:00 NR 20.08 127.18 548 536 __________P___ -1 20.08 127.18 4 5 332
1899 WP MM 1899-07-04 00:00:00 NR 20.32 127.05 536 536 __________P___ -1 20.32 127.05 4 6 336
1899 WP MM 03:00:00 NR 20.60 126.93 541 541 __________P___ -1 20.60 126.93 4 6 340
1899 WP MM 04:00:00 NR 20.70 126.90 546 546 __________O___ -1 20.70 126.90 4 7 348
1899 WP MM 06:00:00 NR 20.93 126.86 556 553 __________P___ -1 20.93 126.86 4 7 353
1899 WP MM 09:00:00 NR 21.31 126.81 571 571 __________P___ -1 21.31 126.81 4 8 356
1899 WP MM 12:00:00 NR 21.70 126.80 576 565 __________P___ -1 21.70 126.80 4 8 0
1899 WP MM 15:00:00 NR 22.08 126.80 565 562 __________P___ -1 22.08 126.80 4 7 1
1899 WP MM 16:00:00 NR 22.20 126.80 562 551 __________O___ -1 22.20 126.80 4 6 358
1899 WP MM 18:00:00 NR 22.40 126.79 551 538 __________P___ -1 22.40 126.79 4 6 0
1899 WP MM 21:00:00 NR 22.68 126.80 538 529 __________P___ -1 22.68 126.80 4 5 2
1899 WP MM 1899-07-05 00:00:00 NR 22.95 126.82 529 522 __________P___ -1 22.95 126.82 4 5 7
1899 WP MM 03:00:00 NR 23.21 126.88 528 525 __________P___ -1 23.21 126.88 4 5 12
1899 WP MM 04:00:00 NR 23.30 126.90 525 519 __________O___ -1 23.30 126.90 4 6 14
1899 WP MM 06:00:00 NR 23.50 126.95 529 523 __________P___ -1 23.50 126.95 4 6 16
1899 WP MM 09:00:00 NR 23.80 127.06 533 527 __________P___ -1 23.80 127.06 4 6 20
1899 WP MM 12:00:00 NR 24.10 127.19 535 532 __________P___ -1 24.10 127.19 4 7 24
1899 WP MM 15:00:00 NR 24.40 127.34 539 547 __________P___ -1 24.40 127.34 4 7 26
1899 WP MM 16:00:00 NR 24.50 127.40 547 546 __________O___ -1 24.50 127.40 4 7 30
1899 WP MM 18:00:00 NR 24.69 127.52 555 555 __________P___ -1 24.69 127.52 4 7 33
1899 WP MM 21:00:00 NR 24.96 127.73 573 573 __________P___ -1 24.96 127.73 4 7 35
1899 WP MM 1899-07-06 00:00:00 NR 25.23 127.94 594 604 __________P___ -1 25.23 127.94 4 7 34
1899 WP MM 03:00:00 NR 25.51 128.14 615 625 __________P___ -1 25.51 128.14 4 7 32
1899 WP MM 04:00:00 NR 25.60 128.20 626 626 __________O___ -1 25.60 128.20 4 6 26
1899 WP MM 06:00:00 NR 25.79 128.29 626 591 __________P___ -1 25.79 128.29 4 6 21
1899 WP MM 09:00:00 NR 26.08 128.41 591 556 __________P___ -1 26.08 128.41 4 6 19
1899 WP MM 12:00:00 NR 26.38 128.52 556 521 __________P___ -1 26.38 128.52 4 7 19
1899 WP MM 15:00:00 NR 26.69 128.65 521 507 __________P___ -1 26.69 128.65 4 7 21
1899 WP MM 16:00:00 NR 26.80 128.70 507 483 __________O___ -1 26.80 128.70 4 7 24
1899 WP MM 18:00:00 NR 27.02 128.82 483 434 __________P___ -1 27.02 128.82 4 8 27
1899 WP MM 21:00:00 NR 27.37 129.02 434 392 __________P___ -1 27.37 129.02 4 8 29
1899 WP MM 1899-07-07 00:00:00 NR 27.72 129.26 392 343 __________P___ -1 27.72 129.26 4 8 31
1899 WP MM 03:00:00 NR 28.08 129.51 343 330 __________P___ -1 28.08 129.51 4 9 32
1899 WP MM 04:00:00 NR 28.20 129.60 330 __________O___ -1 28.20 129.60 4 9 33